Bleecker, New York
Current Conditions -  °F | °C
As of 2:55 AM on Monday 29 Dec 2014 (Local Time) from KNY0 Reporting Station
Clear Clear  
Wind Chill: 21°   Ceiling: Unl
Heat Index: 29°   Visibility: 10mi
Dew Point: 24°   Wind: 9mph
Humidity: 79%   Direction: 280°W
Pressure: 30.06"   Gusts: NA
Location:  43.1204°N, 74.3629°W
Report Text: KNY0 290755Z AUTO 28008KT 10SM CLR M01/M05 A3006 RMK AO2 T10141047
Loading
Personal Weather Stations






























Interactive Weather Map New forecast layout! Learn more

10-Day Weather Forecast

Advertisements
Track Severe Weather on mobile